Time;durP1;ratioP1;P1;durP2;ratioP2;P2;SDS_P1;SDS_P2;PMS_P1;PMS_P2;Temp;Humidity;BMP_temperature;BMP_pressure;BME280_temperature;BME280_humidity;BME280_pressure;Samples;Min_cycle;Max_cycle;Signal;HPM_P1;HPM_P2
2021/11/29 00:00:54;;;;;;;21.15;18.98;;;0.20;99.90;;;;;;5014685;28;20038;-77
2021/11/29 00:03:29;;;;;;;24.25;22.00;;;0.30;99.90;;;;;;5032663;28;20030;-77
2021/11/29 00:05:56;;;;;;;26.63;22.60;;;0.30;99.90;;;;;;5032362;28;20406;-77
2021/11/29 00:08:22;;;;;;;26.42;23.58;;;0.30;99.90;;;;;;5032890;28;20467;-78
2021/11/29 00:10:48;;;;;;;31.33;24.70;;;0.30;99.90;;;;;;5032500;28;20037;-77
2021/11/29 00:13:15;;;;;;;26.00;23.42;;;0.30;99.90;;;;;;5032543;28;20033;-77
2021/11/29 00:15:41;;;;;;;26.83;24.17;;;0.30;99.90;;;;;;5035356;28;20040;-77
2021/11/29 00:18:07;;;;;;;33.70;26.75;;;0.40;99.90;;;;;;5032339;28;20033;-77
2021/11/29 00:20:34;;;;;;;27.40;24.08;;;0.40;99.90;;;;;;5032792;28;20475;-78
2021/11/29 00:23:00;;;;;;;24.17;21.67;;;0.40;99.90;;;;;;5032324;28;20048;-78
2021/11/29 00:25:27;;;;;;;21.70;19.65;;;0.30;99.90;;;;;;5033914;28;20032;-77
2021/11/29 00:27:54;;;;;;;24.90;22.25;;;0.30;99.90;;;;;;5014576;28;20030;-77
2021/11/29 00:30:21;;;;;;;21.80;18.00;;;0.30;99.90;;;;;;5014370;28;20033;-77
2021/11/29 00:32:47;;;;;;;21.63;19.45;;;0.40;99.90;;;;;;5031936;28;20395;-77
2021/11/29 00:35:14;;;;;;;27.65;23.17;;;0.30;99.90;;;;;;5032469;28;20042;-77
2021/11/29 00:37:40;;;;;;;26.95;23.95;;;0.40;99.90;;;;;;5032334;28;20030;-77
2021/11/29 00:40:09;;;;;;;30.48;25.75;;;0.40;99.90;;;;;;5034563;28;20038;-77
2021/11/29 00:42:35;;;;;;;31.90;28.55;;;0.40;99.90;;;;;;5036086;28;20033;-77
2021/11/29 00:45:03;;;;;;;33.97;30.40;;;0.40;99.90;;;;;;5036012;28;20040;-76
2021/11/29 00:47:29;;;;;;;43.42;34.30;;;0.50;99.90;;;;;;5038061;28;20493;-77
2021/11/29 00:49:55;;;;;;;44.35;35.33;;;0.60;99.90;;;;;;5035310;28;20029;-77
2021/11/29 00:52:21;;;;;;;43.85;39.45;;;0.60;99.90;;;;;;5017923;28;20042;-77
2021/11/29 00:54:48;;;;;;;47.83;40.05;;;0.80;99.90;;;;;;5034840;28;20030;-77
2021/11/29 00:57:14;;;;;;;50.72;42.42;;;0.90;99.90;;;;;;5035422;28;20033;-77
2021/11/29 00:59:46;;;;;;;61.92;46.25;;;1.10;99.90;;;;;;5035561;28;20411;-77
2021/11/29 01:02:16;;;;;;;49.90;44.83;;;1.10;99.90;;;;;;5018294;28;20041;-77
2021/11/29 01:04:43;;;;;;;49.40;44.13;;;1.20;99.90;;;;;;5035046;28;20395;-77
2021/11/29 01:07:10;;;;;;;50.10;41.05;;;1.30;99.90;;;;;;5035470;28;20475;-76
2021/11/29 01:09:37;;;;;;;48.67;43.42;;;1.30;99.90;;;;;;5037180;28;20030;-77
2021/11/29 01:12:03;;;;;;;43.90;39.35;;;1.40;99.90;;;;;;5035026;28;20379;-76
2021/11/29 01:14:30;;;;;;;42.28;37.67;;;1.40;99.90;;;;;;5035484;28;20040;-77
2021/11/29 01:16:56;;;;;;;40.65;36.42;;;1.50;99.90;;;;;;5034807;28;20029;-76
2021/11/29 01:19:22;;;;;;;39.50;35.28;;;1.50;99.90;;;;;;5035558;28;20037;-77
2021/11/29 01:21:48;;;;;;;36.17;32.45;;;1.50;99.90;;;;;;5034803;28;20033;-77
2021/11/29 01:24:15;;;;;;;36.30;32.75;;;1.50;99.90;;;;;;5037766;28;20037;-78
2021/11/29 01:26:41;;;;;;;38.13;34.28;;;1.50;99.90;;;;;;5038904;28;20033;-77
2021/11/29 01:29:08;;;;;;;33.60;30.13;;;1.50;99.90;;;;;;5039359;28;20768;-77
2021/11/29 01:31:34;;;;;;;35.95;30.85;;;1.50;99.90;;;;;;5035248;28;20049;-77
2021/11/29 01:34:00;;;;;;;34.85;29.92;;;1.60;99.90;;;;;;5034663;28;20037;-77
2021/11/29 01:36:26;;;;;;;33.47;30.05;;;1.60;99.90;;;;;;5035057;28;20444;-77
2021/11/29 01:38:52;;;;;;;32.20;27.55;;;1.60;99.90;;;;;;5034467;28;20029;-77
2021/11/29 01:41:19;;;;;;;30.23;26.00;;;1.70;99.90;;;;;;5035372;28;20045;-77
2021/11/29 01:43:46;;;;;;;32.50;29.08;;;1.70;99.90;;;;;;5035127;28;20451;-77
2021/11/29 01:46:12;;;;;;;34.67;29.13;;;1.70;99.90;;;;;;5034683;28;20386;-77
2021/11/29 01:48:38;;;;;;;30.33;27.48;;;1.70;99.90;;;;;;5034836;28;20052;-77
2021/11/29 01:51:05;;;;;;;31.58;28.25;;;1.70;99.90;;;;;;5014643;28;20038;-77
2021/11/29 01:53:33;;;;;;;33.40;26.98;;;1.70;99.90;;;;;;5035026;28;20034;-77
2021/11/29 01:55:59;;;;;;;29.05;25.88;;;1.80;99.90;;;;;;5034243;28;20037;-77
2021/11/29 01:58:31;;;;;;;33.38;27.45;;;1.70;99.90;;;;;;5034514;28;20037;-77
2021/11/29 02:01:00;;;;;;;30.08;25.92;;;1.80;99.90;;;;;;5039608;28;20044;-77
2021/11/29 02:03:27;;;;;;;28.23;25.38;;;1.80;99.90;;;;;;5036300;28;20030;-77
2021/11/29 02:05:54;;;;;;;28.23;25.52;;;1.80;99.90;;;;;;5035259;28;20037;-77
2021/11/29 02:08:21;;;;;;;29.33;26.42;;;1.80;99.90;;;;;;5036346;28;20052;-76
2021/11/29 02:10:47;;;;;;;29.33;26.52;;;1.80;99.90;;;;;;5037055;28;20033;-77
2021/11/29 02:13:17;;;;;;;28.05;24.20;;;1.80;99.90;;;;;;5034503;28;20033;-77
2021/11/29 02:15:43;;;;;;;29.50;26.48;;;1.80;99.90;;;;;;5034255;28;20037;-77
2021/11/29 02:18:10;;;;;;;27.35;24.80;;;1.80;99.90;;;;;;5015970;28;20395;-78
2021/11/29 02:20:36;;;;;;;32.65;28.60;;;1.80;99.90;;;;;;5035966;28;20470;-77
2021/11/29 02:23:05;;;;;;;29.27;26.33;;;1.80;99.90;;;;;;5037904;28;20042;-76
2021/11/29 02:25:31;;;;;;;32.90;28.80;;;1.80;99.90;;;;;;5038103;28;20030;-76
2021/11/29 02:27:58;;;;;;;32.90;28.70;;;1.80;99.90;;;;;;5037996;28;20026;-76
2021/11/29 02:30:26;;;;;;;29.80;26.85;;;1.80;99.90;;;;;;5037310;28;20033;-76
2021/11/29 02:32:53;;;;;;;39.00;28.98;;;1.80;99.90;;;;;;5034089;28;20057;-76
2021/11/29 02:35:21;;;;;;;31.88;28.52;;;1.90;99.90;;;;;;5033812;28;20053;-76
2021/11/29 02:37:49;;;;;;;31.70;28.40;;;1.90;99.90;;;;;;5017797;28;20033;-76
2021/11/29 02:40:15;;;;;;;34.65;28.38;;;1.90;99.90;;;;;;5033214;28;20037;-76
2021/11/29 02:42:42;;;;;;;32.67;29.20;;;1.90;99.90;;;;;;5033870;28;20383;-75
2021/11/29 02:45:08;;;;;;;33.08;28.30;;;1.90;99.90;;;;;;5033096;28;20383;-76
2021/11/29 02:47:34;;;;;;;34.40;30.38;;;1.90;99.90;;;;;;5033900;28;20034;-76
2021/11/29 02:50:01;;;;;;;32.17;28.50;;;2.00;99.90;;;;;;5033514;28;20026;-76
2021/11/29 02:52:27;;;;;;;31.80;28.33;;;2.00;99.90;;;;;;5033533;28;20033;-76
2021/11/29 02:54:53;;;;;;;37.40;29.85;;;1.90;99.90;;;;;;5035402;28;20033;-76
2021/11/29 02:57:22;;;;;;;31.73;28.40;;;2.00;99.90;;;;;;5033439;28;20041;-76
2021/11/29 02:59:48;;;;;;;32.40;28.70;;;2.00;99.90;;;;;;5033203;28;20364;-76
2021/11/29 03:02:19;;;;;;;31.98;28.77;;;2.00;99.90;;;;;;5014698;28;20041;-76
2021/11/29 03:04:46;;;;;;;31.95;28.65;;;2.00;99.90;;;;;;5033452;28;20045;-76
2021/11/29 03:07:14;;;;;;;30.15;26.95;;;2.00;99.90;;;;;;5032377;28;20044;-75
2021/11/29 03:09:42;;;;;;;32.85;27.05;;;2.10;99.90;;;;;;5033184;28;20029;-76
2021/11/29 03:12:08;;;;;;;28.17;25.27;;;2.10;99.90;;;;;;5032119;28;20052;-75
2021/11/29 03:14:34;;;;;;;28.67;25.60;;;2.10;99.90;;;;;;5032801;28;20041;-77
2021/11/29 03:17:02;;;;;;;32.72;23.52;;;2.10;99.90;;;;;;5014484;28;20038;-75
2021/11/29 03:19:31;;;;;;;26.40;23.70;;;2.10;99.90;;;;;;5015243;28;20042;-76
2021/11/29 03:21:57;;;;;;;21.88;19.67;;;2.20;99.90;;;;;;5032191;28;20390;-76
2021/11/29 03:24:24;;;;;;;24.70;20.73;;;2.20;99.90;;;;;;5014670;28;20045;-76
2021/11/29 03:26:51;;;;;;;24.00;19.73;;;2.20;99.90;;;;;;5032506;28;20041;-76
2021/11/29 03:29:19;;;;;;;20.88;18.80;;;2.20;99.90;;;;;;5032107;28;20458;-76
2021/11/29 03:31:45;;;;;;;21.88;18.98;;;2.20;99.90;;;;;;5014421;28;20046;-76
2021/11/29 03:34:14;;;;;;;22.15;18.20;;;2.20;99.90;;;;;;5032082;28;20033;-76
2021/11/29 03:36:43;;;;;;;20.58;18.45;;;2.20;99.90;;;;;;5032367;28;20029;-76
2021/11/29 03:39:13;;;;;;;17.92;15.98;;;2.20;99.90;;;;;;5031610;28;20033;-76
2021/11/29 03:41:41;;;;;;;19.65;16.80;;;2.20;99.90;;;;;;5014391;28;20049;-76
2021/11/29 03:44:08;;;;;;;17.52;15.93;;;2.20;99.90;;;;;;5031802;28;20041;-76
2021/11/29 03:46:34;;;;;;;16.52;14.90;;;2.10;99.90;;;;;;5035765;28;20029;-76
2021/11/29 03:49:01;;;;;;;18.95;16.95;;;2.10;99.90;;;;;;5014880;28;20041;-76
2021/11/29 03:51:27;;;;;;;17.00;15.02;;;2.10;99.90;;;;;;5032217;28;20029;-76
2021/11/29 03:53:53;;;;;;;17.27;15.48;;;2.10;99.90;;;;;;5032521;28;20037;-76
2021/11/29 03:56:19;;;;;;;17.35;15.57;;;2.00;99.90;;;;;;5031772;28;20056;-75
2021/11/29 03:58:46;;;;;;;16.27;14.30;;;2.10;99.90;;;;;;5031540;28;20056;-75
2021/11/29 04:01:12;;;;;;;23.35;16.60;;;2.10;99.90;;;;;;5031601;28;20486;-75
2021/11/29 04:03:39;;;;;;;16.20;14.60;;;2.00;99.90;;;;;;5032186;28;20038;-75
2021/11/29 04:06:06;;;;;;;17.98;14.90;;;2.00;99.90;;;;;;5031391;28;20025;-76
2021/11/29 04:08:32;;;;;;;17.92;16.23;;;1.90;99.90;;;;;;5031976;28;20025;-75
2021/11/29 04:10:58;;;;;;;16.60;14.32;;;1.90;99.90;;;;;;5031601;28;20033;-76
2021/11/29 04:13:24;;;;;;;14.65;13.18;;;1.80;99.90;;;;;;5033691;28;20025;-76
2021/11/29 04:15:50;;;;;;;17.83;15.65;;;1.80;99.90;;;;;;5036415;28;20493;-76
2021/11/29 04:18:17;;;;;;;19.02;16.92;;;1.80;99.90;;;;;;5035678;28;20036;-76
2021/11/29 04:20:43;;;;;;;18.08;15.77;;;1.70;99.90;;;;;;5035959;28;20033;-75
2021/11/29 04:23:09;;;;;;;18.67;14.80;;;1.70;99.90;;;;;;5035620;28;20033;-76
2021/11/29 04:25:44;;;;;;;19.42;16.27;;;1.70;99.90;;;;;;5036131;28;20467;-75
2021/11/29 04:28:11;;;;;;;18.58;14.68;;;1.70;99.90;;;;;;5034998;28;20399;-76
2021/11/29 04:30:37;;;;;;;20.48;15.50;;;1.70;99.90;;;;;;5035802;28;20455;-75
2021/11/29 04:33:03;;;;;;;17.08;14.65;;;1.70;99.90;;;;;;5035307;28;20459;-75
2021/11/29 04:35:30;;;;;;;15.45;13.95;;;1.70;99.90;;;;;;5036052;28;20041;-76
2021/11/29 04:37:56;;;;;;;17.50;14.90;;;1.60;99.90;;;;;;5018989;28;20467;-75
2021/11/29 04:40:22;;;;;;;18.80;13.38;;;1.70;99.90;;;;;;5035945;28;20041;-75
2021/11/29 04:42:48;;;;;;;19.33;13.43;;;1.60;99.90;;;;;;5018070;28;20042;-75
2021/11/29 04:45:15;;;;;;;14.07;12.35;;;1.60;99.90;;;;;;5017443;28;20037;-76
2021/11/29 04:47:42;;;;;;;15.00;13.00;;;1.60;99.90;;;;;;5035827;28;20032;-76
2021/11/29 04:50:08;;;;;;;13.95;12.13;;;1.70;99.90;;;;;;5017245;28;20037;-76
2021/11/29 04:52:36;;;;;;;17.23;13.45;;;1.60;99.90;;;;;;5035677;28;20045;-75
2021/11/29 04:55:03;;;;;;;13.63;12.32;;;1.60;99.90;;;;;;5034759;28;20052;-75
2021/11/29 04:57:29;;;;;;;13.13;11.55;;;1.60;99.90;;;;;;5035474;28;20030;-75
2021/11/29 04:59:55;;;;;;;13.95;12.65;;;1.60;99.90;;;;;;5035826;28;20025;-75
2021/11/29 05:02:22;;;;;;;14.45;13.00;;;1.50;99.90;;;;;;5034873;28;20037;-75
2021/11/29 05:04:48;;;;;;;15.35;13.95;;;1.50;99.90;;;;;;5017268;28;20033;-76
2021/11/29 05:07:16;;;;;;;14.80;13.30;;;1.40;99.90;;;;;;5000563;28;20048;-76
2021/11/29 05:09:43;;;;;;;16.23;13.00;;;1.40;99.90;;;;;;5035214;28;20037;-76
2021/11/29 05:12:14;;;;;;;14.93;13.52;;;1.30;99.90;;;;;;5034544;28;20040;-76
2021/11/29 05:14:41;;;;;;;15.27;13.68;;;1.30;99.90;;;;;;5035360;28;20038;-75
2021/11/29 05:17:07;;;;;;;13.95;12.65;;;1.30;99.90;;;;;;5048963;28;20055;-77
2021/11/29 05:19:33;;;;;;;18.27;13.55;;;1.20;99.90;;;;;;5055117;28;20032;-77
2021/11/29 05:21:59;;;;;;;16.30;14.73;;;1.10;99.90;;;;;;5039337;28;20049;-77
2021/11/29 05:24:26;;;;;;;16.38;14.65;;;1.10;99.90;;;;;;5034566;28;20045;-77
2021/11/29 05:26:52;;;;;;;18.17;14.40;;;1.00;99.90;;;;;;5049629;28;20040;-77
2021/11/29 05:29:18;;;;;;;13.98;12.57;;;0.90;99.90;;;;;;5054289;28;20033;-77
2021/11/29 05:31:45;;;;;;;18.52;14.25;;;0.70;99.90;;;;;;5058380;28;20056;-76
2021/11/29 05:34:13;;;;;;;16.65;14.95;;;0.60;99.90;;;;;;5037027;28;20041;-77
2021/11/29 05:36:40;;;;;;;17.58;15.60;;;0.50;99.90;;;;;;5054543;28;20072;-77
2021/11/29 05:39:06;;;;;;;21.60;16.13;;;0.30;99.90;;;;;;5054388;28;20458;-77
2021/11/29 05:41:33;;;;;;;17.83;13.75;;;0.20;99.90;;;;;;5036625;28;20390;-77
2021/11/29 05:43:59;;;;;;;18.42;16.52;;;0.10;99.90;;;;;;5054825;28;20037;-76
2021/11/29 05:46:25;;;;;;;18.73;15.32;;;0.10;99.90;;;;;;5054285;28;20033;-76
2021/11/29 05:48:52;;;;;;;18.33;16.35;;;0.00;99.90;;;;;;5054319;28;20040;-77
2021/11/29 05:51:19;;;;;;;26.90;16.50;;;-0.20;99.90;;;;;;5054058;28;20029;-77
2021/11/29 05:53:47;;;;;;;20.65;15.80;;;-0.20;99.90;;;;;;5054827;28;20459;-76
2021/11/29 05:56:15;;;;;;;26.73;18.50;;;-0.30;99.90;;;;;;5054207;28;20033;-77
2021/11/29 05:58:41;;;;;;;19.27;17.33;;;-0.40;99.90;;;;;;5054349;28;20044;-76
2021/11/29 06:01:08;;;;;;;25.48;21.13;;;-0.40;99.90;;;;;;5053741;28;20037;-77
2021/11/29 06:03:34;;;;;;;20.33;18.27;;;-0.50;99.90;;;;;;5036408;28;20048;-77
2021/11/29 06:06:01;;;;;;;20.92;17.55;;;-0.60;99.90;;;;;;5051803;28;20060;-77
2021/11/29 06:08:27;;;;;;;19.27;17.25;;;-0.70;99.90;;;;;;5023544;28;20030;-77
2021/11/29 06:10:54;;;;;;;24.08;18.05;;;-0.70;99.90;;;;;;5034380;28;20040;-77
2021/11/29 06:13:20;;;;;;;21.63;17.90;;;-0.80;99.90;;;;;;5033336;28;20033;-77
2021/11/29 06:15:46;;;;;;;24.73;19.02;;;-0.80;99.90;;;;;;5034115;28;20030;-77
2021/11/29 06:18:13;;;;;;;27.25;22.63;;;-0.80;99.90;;;;;;5033591;28;20033;-76
2021/11/29 06:20:40;;;;;;;21.27;19.00;;;-0.90;99.90;;;;;;5016567;28;20033;-77
2021/11/29 06:23:06;;;;;;;24.10;19.17;;;-0.90;99.90;;;;;;5033965;28;20387;-78
2021/11/29 06:25:32;;;;;;;24.88;22.05;;;-1.00;99.90;;;;;;5033799;28;20467;-77
2021/11/29 06:27:59;;;;;;;24.17;21.17;;;-1.00;99.90;;;;;;5034109;28;20435;-77
2021/11/29 06:30:26;;;;;;;34.67;26.85;;;-1.00;99.90;;;;;;5032976;28;20726;-77
2021/11/29 06:32:52;;;;;;;31.02;26.10;;;-1.00;99.90;;;;;;5034073;28;20046;-77
2021/11/29 06:35:19;;;;;;;35.55;24.65;;;-1.00;99.90;;;;;;5015127;28;20041;-77
2021/11/29 06:37:59;;;;;;;34.05;29.52;;;-1.10;99.90;;;;;;5036557;28;20040;-77
2021/11/29 06:40:26;;;;;;;35.25;27.70;;;-1.10;99.90;;;;;;5018752;28;20029;-77
2021/11/29 06:42:53;;;;;;;37.88;30.77;;;-1.20;99.90;;;;;;5043298;28;20049;-77
2021/11/29 06:45:20;;;;;;;43.55;36.35;;;-1.30;99.90;;;;;;5044175;28;20033;-78
2021/11/29 06:47:46;;;;;;;46.50;37.58;;;-1.30;99.90;;;;;;5040470;28;20033;-78
2021/11/29 06:50:13;;;;;;;43.90;35.65;;;-1.40;99.90;;;;;;5018208;28;20493;-78
2021/11/29 06:52:39;;;;;;;61.67;43.97;;;-1.40;99.90;;;;;;5037566;28;20037;-77
2021/11/29 06:55:11;;;;;;;52.90;41.92;;;-1.40;99.90;;;;;;5035328;28;20038;-77
2021/11/29 06:57:37;;;;;;;55.90;44.63;;;-1.40;99.90;;;;;;5033858;28;20489;-77
2021/11/29 07:00:06;;;;;;;53.90;41.38;;;-1.40;99.90;;;;;;5032839;28;20390;-77
2021/11/29 07:02:32;;;;;;;46.95;34.05;;;-1.40;99.90;;;;;;5032686;28;20490;-78
2021/11/29 07:04:59;;;;;;;38.55;31.27;;;-1.40;99.90;;;;;;5033244;28;20034;-77
2021/11/29 07:07:25;;;;;;;45.47;33.67;;;-1.30;99.90;;;;;;5032848;28;20033;-78
2021/11/29 07:09:54;;;;;;;42.42;28.77;;;-1.30;99.90;;;;;;5033541;28;20044;-78
2021/11/29 07:12:20;;;;;;;27.65;20.55;;;-1.30;99.90;;;;;;5032914;28;20041;-77
2021/11/29 07:14:46;;;;;;;25.33;22.63;;;-1.20;99.90;;;;;;5035260;28;20029;-77
2021/11/29 07:17:13;;;;;;;32.78;23.17;;;-1.20;99.90;;;;;;5033449;28;20040;-78
2021/11/29 07:19:39;;;;;;;30.95;24.70;;;-1.10;99.90;;;;;;5015661;28;20049;-78
2021/11/29 07:22:06;;;;;;;44.30;32.30;;;-1.10;99.90;;;;;;5033134;28;20048;-78
2021/11/29 07:24:34;;;;;;;39.67;30.48;;;-1.10;99.90;;;;;;5037185;28;20034;-78
2021/11/29 07:27:00;;;;;;;30.30;26.63;;;-1.00;99.90;;;;;;5044408;28;20041;-77
2021/11/29 07:29:27;;;;;;;36.10;29.58;;;-1.00;99.90;;;;;;5047326;28;20035;-79
2021/11/29 07:31:53;;;;;;;37.33;31.30;;;-1.00;99.90;;;;;;5048140;28;20061;-78
2021/11/29 07:34:20;;;;;;;38.88;31.23;;;-1.00;99.90;;;;;;5014378;28;20052;-78
2021/11/29 07:36:46;;;;;;;35.45;30.92;;;-0.90;99.90;;;;;;5033690;28;20044;-78
2021/11/29 07:39:12;;;;;;;33.35;28.73;;;-0.80;99.90;;;;;;5032407;28;20414;-78
2021/11/29 07:41:38;;;;;;;36.63;31.95;;;-0.80;99.90;;;;;;5032781;28;20034;-78
2021/11/29 07:44:05;;;;;;;45.20;30.92;;;-0.70;99.90;;;;;;5032104;28;20037;-77
2021/11/29 07:46:32;;;;;;;32.03;28.60;;;-0.60;99.90;;;;;;5013958;28;20042;-77
2021/11/29 07:49:00;;;;;;;37.20;27.20;;;-0.50;99.90;;;;;;5013554;28;20048;-77
2021/11/29 07:51:27;;;;;;;28.10;24.92;;;-0.50;99.90;;;;;;5031505;28;20091;-78
2021/11/29 07:53:53;;;;;;;29.45;26.13;;;-0.40;99.90;;;;;;5033561;28;20093;-78
2021/11/29 07:56:20;;;;;;;62.35;51.08;;;-0.40;99.90;;;;;;5031611;28;20447;-78
2021/11/29 07:58:46;;;;;;;34.25;23.50;;;-0.30;99.90;;;;;;5032415;28;20029;-78
2021/11/29 08:01:13;;;;;;;30.42;27.10;;;-0.20;99.90;;;;;;5032036;28;20025;-79
2021/11/29 08:03:39;;;;;;;49.85;32.88;;;-0.10;99.90;;;;;;5032433;28;20026;-77
2021/11/29 08:06:06;;;;;;;36.20;29.35;;;0.00;99.90;;;;;;5032281;28;20040;-78
2021/11/29 08:08:32;;;;;;;35.90;27.40;;;0.10;99.90;;;;;;5033451;28;20034;-77
2021/11/29 08:10:58;;;;;;;28.48;25.45;;;0.30;99.90;;;;;;5014777;28;20033;-77
2021/11/29 08:13:25;;;;;;;27.52;24.45;;;0.50;99.90;;;;;;5031804;28;20036;-77
2021/11/29 08:15:51;;;;;;;81.40;56.42;;;0.70;99.90;;;;;;5032842;28;20036;-77
2021/11/29 08:18:17;;;;;;;41.78;34.45;;;1.00;99.90;;;;;;5031740;28;20026;-77
2021/11/29 08:20:43;;;;;;;72.45;48.53;;;1.10;99.90;;;;;;5014083;28;20041;-77
2021/11/29 08:23:10;;;;;;;46.22;28.98;;;1.40;99.90;;;;;;5032207;28;20041;-77
2021/11/29 08:25:40;;;;;;;33.83;12.63;;;1.60;99.90;;;;;;5031704;28;20379;-77
2021/11/29 08:28:11;;;;;;;14.60;7.30;;;1.70;99.90;;;;;;5032265;28;20033;-77
2021/11/29 08:30:39;;;;;;;5.95;5.35;;;1.80;99.90;;;;;;5031798;28;20371;-77
2021/11/29 08:33:06;;;;;;;7.40;5.63;;;1.90;99.90;;;;;;5032025;28;20033;-77
2021/11/29 08:35:32;;;;;;;13.55;6.00;;;1.90;99.90;;;;;;5031105;28;20044;-78
2021/11/29 08:37:58;;;;;;;8.07;6.03;;;1.90;99.90;;;;;;5031797;28;20474;-76
2021/11/29 08:40:33;;;;;;;12.70;6.60;;;1.90;99.90;;;;;;5013115;28;20054;-76
2021/11/29 08:43:07;;;;;;;9.27;6.15;;;1.90;99.90;;;;;;5031652;28;20057;-77
2021/11/29 08:45:35;;;;;;;7.10;5.93;;;2.00;99.90;;;;;;5023031;28;20033;-77
2021/11/29 08:48:03;;;;;;;9.57;6.53;;;2.00;99.90;;;;;;5048279;28;20021;-76
2021/11/29 08:50:30;;;;;;;8.27;5.68;;;2.10;99.90;;;;;;5050408;28;20037;-77
2021/11/29 08:53:04;;;;;;;11.95;5.28;;;2.20;99.90;;;;;;5050218;28;20033;-77
2021/11/29 08:55:30;;;;;;;7.10;5.38;;;2.20;99.90;;;;;;5032413;28;20056;-77
2021/11/29 08:57:57;;;;;;;8.23;5.78;;;2.30;99.90;;;;;;5048811;28;20030;-76
2021/11/29 09:00:25;;;;;;;6.15;5.00;;;2.40;99.90;;;;;;5027434;28;20029;-76
2021/11/29 09:02:51;;;;;;;6.32;4.35;;;2.40;99.10;;;;;;5035121;28;20037;-76
2021/11/29 09:05:18;;;;;;;10.02;4.45;;;2.40;97.50;;;;;;5021082;28;20044;-77
2021/11/29 09:07:45;;;;;;;13.38;5.55;;;2.40;97.00;;;;;;5043566;28;20033;-77
2021/11/29 09:10:13;;;;;;;11.93;5.47;;;2.60;97.10;;;;;;5027579;28;20045;-76
2021/11/29 09:12:39;;;;;;;6.30;5.28;;;2.50;96.30;;;;;;5044283;28;20439;-75
2021/11/29 09:15:09;;;;;;;4.00;3.60;;;2.60;96.00;;;;;;5043201;28;20029;-76
2021/11/29 09:17:36;;;;;;;7.20;5.25;;;2.50;95.40;;;;;;5044288;28;20117;-76
2021/11/29 09:20:06;;;;;;;6.13;4.90;;;2.60;95.80;;;;;;5039149;28;20034;-77
2021/11/29 09:22:33;;;;;;;16.73;5.28;;;2.60;94.70;;;;;;5053683;28;20056;-76
2021/11/29 09:25:00;;;;;;;5.07;3.60;;;2.60;94.40;;;;;;5054511;28;20041;-75
2021/11/29 09:27:28;;;;;;;7.43;4.38;;;2.70;94.80;;;;;;5054087;28;20037;-76
2021/11/29 09:29:54;;;;;;;7.18;4.10;;;2.70;93.80;;;;;;5054365;28;20409;-75
2021/11/29 09:32:20;;;;;;;6.55;5.00;;;2.80;93.70;;;;;;5032063;28;20056;-76
2021/11/29 09:34:48;;;;;;;10.02;4.97;;;2.80;93.20;;;;;;5029365;28;20037;-75
2021/11/29 09:37:16;;;;;;;7.53;4.75;;;2.90;93.00;;;;;;5014330;28;20030;-74
2021/11/29 09:39:42;;;;;;;4.72;3.95;;;2.90;92.70;;;;;;5021474;28;20046;-75
2021/11/29 09:42:08;;;;;;;5.45;3.90;;;3.00;92.50;;;;;;5022938;28;20045;-76
2021/11/29 09:44:35;;;;;;;5.88;5.20;;;3.10;92.50;;;;;;5030525;28;20034;-76
2021/11/29 09:47:01;;;;;;;5.45;4.18;;;3.10;93.20;;;;;;5030184;28;20030;-76
2021/11/29 09:49:29;;;;;;;4.60;4.15;;;3.10;92.10;;;;;;5036315;28;20022;-76
2021/11/29 09:51:59;;;;;;;8.40;4.20;;;3.20;91.60;;;;;;5026185;28;20037;-75
2021/11/29 09:54:28;;;;;;;5.47;4.75;;;3.30;91.50;;;;;;5042268;28;20045;-75
2021/11/29 09:56:54;;;;;;;7.20;4.28;;;3.40;91.80;;;;;;5030147;28;20044;-75
2021/11/29 09:59:23;;;;;;;9.77;3.80;;;3.50;91.40;;;;;;5027357;28;20060;-76
2021/11/29 10:01:54;;;;;;;4.00;2.97;;;3.50;90.80;;;;;;5031913;28;20029;-76
2021/11/29 10:04:21;;;;;;;4.50;3.80;;;3.40;90.70;;;;;;5025792;28;20459;-76
2021/11/29 10:07:02;;;;;;;6.55;4.07;;;3.20;90.20;;;;;;5013835;28;20037;-75
2021/11/29 10:09:35;;;;;;;6.78;4.72;;;3.10;90.70;;;;;;5033876;28;20044;-74
2021/11/29 10:12:27;;;;;;;8.27;4.20;;;3.10;90.50;;;;;;5032935;28;20516;-74
2021/11/29 10:15:17;;;;;;;10.82;5.20;;;3.10;90.80;;;;;;5026322;28;20041;-75
2021/11/29 10:17:49;;;;;;;4.15;3.13;;;3.10;90.80;;;;;;5041071;28;20064;-76
2021/11/29 10:20:15;;;;;;;19.13;16.75;;;3.10;90.20;;;;;;5039288;28;20033;-75
2021/11/29 10:23:07;;;;;;;5.20;3.83;;;3.10;90.20;;;;;;5042254;28;20564;-74
2021/11/29 10:25:42;;;;;;;5.30;4.07;;;3.20;90.20;;;;;;5046969;28;20387;-77
2021/11/29 10:28:32;;;;;;;7.20;4.13;;;3.20;89.80;;;;;;5053458;28;20033;-78
2021/11/29 10:31:12;;;;;;;59.58;53.65;;;3.30;90.10;;;;;;5040149;28;20045;-76
2021/11/29 10:33:50;;;;;;;6.10;5.50;;;3.40;88.80;;;;;;5024466;28;20117;-76
2021/11/29 10:36:17;;;;;;;5.18;4.28;;;3.60;87.80;;;;;;5026472;28;20026;-77
2021/11/29 10:38:49;;;;;;;7.40;5.22;;;3.70;88.00;;;;;;5024251;28;20038;-77
2021/11/29 10:41:20;;;;;;;8.90;5.45;;;3.60;88.90;;;;;;5026306;28;20029;-76
2021/11/29 10:43:46;;;;;;;5.70;5.10;;;3.70;89.60;;;;;;5032924;28;20044;-76
2021/11/29 10:46:21;;;;;;;10.93;4.90;;;3.70;88.90;;;;;;5035538;28;20394;-76
2021/11/29 10:48:49;;;;;;;6.00;4.32;;;3.80;88.20;;;;;;5031311;28;20049;-77
2021/11/29 10:51:18;;;;;;;5.88;4.03;;;3.70;86.20;;;;;;5032103;28;20033;-77
2021/11/29 10:53:49;;;;;;;6.35;3.83;;;3.70;86.80;;;;;;5035094;28;20036;-77
2021/11/29 10:56:15;;;;;;;5.93;4.25;;;3.80;86.00;;;;;;5051973;28;20029;-77
2021/11/29 10:58:43;;;;;;;6.22;4.15;;;3.70;85.20;;;;;;5021532;28;20534;-76
2021/11/29 11:01:10;;;;;;;6.85;4.60;;;3.80;85.80;;;;;;5021283;28;20382;-76
2021/11/29 11:03:54;;;;;;;5.22;4.13;;;3.80;86.70;;;;;;5020455;28;20387;-77
2021/11/29 11:06:29;;;;;;;6.03;4.07;;;3.90;85.60;;;;;;5032143;28;20040;-77
2021/11/29 11:08:56;;;;;;;7.32;5.05;;;3.90;85.00;;;;;;5023929;28;20482;-77
2021/11/29 11:11:47;;;;;;;4.65;3.88;;;3.90;84.40;;;;;;5020511;28;20042;-77
2021/11/29 11:14:22;;;;;;;9.73;4.18;;;3.90;84.10;;;;;;5009268;28;20045;-76
2021/11/29 11:17:00;;;;;;;4.05;3.47;;;3.90;84.40;;;;;;5019142;28;20483;-77
2021/11/29 11:19:33;;;;;;;4.53;3.72;;;3.90;84.00;;;;;;5027169;28;20030;-78
2021/11/29 11:22:10;;;;;;;4.90;3.55;;;4.00;83.80;;;;;;5028263;28;20037;-78
2021/11/29 11:24:39;;;;;;;7.72;4.78;;;4.00;84.20;;;;;;5021001;28;20041;-78
2021/11/29 11:27:06;;;;;;;23.30;6.45;;;4.00;85.20;;;;;;5013492;28;20486;-78
2021/11/29 11:29:38;;;;;;;4.57;3.75;;;4.00;84.90;;;;;;5011946;28;20026;-77
2021/11/29 11:32:20;;;;;;;6.88;4.50;;;4.00;84.60;;;;;;5025615;28;20061;-80
2021/11/29 11:35:11;;;;;;;5.90;4.40;;;4.00;83.60;;;;;;5032557;28;20025;-77
2021/11/29 11:37:46;;;;;;;8.77;5.63;;;3.90;84.20;;;;;;5037174;28;20038;-77
2021/11/29 11:40:43;;;;;;;5.68;5.10;;;3.80;84.50;;;;;;5032253;28;20037;-79
2021/11/29 11:43:12;;;;;;;6.00;5.40;;;3.80;84.70;;;;;;5029415;28;20475;-76
2021/11/29 11:45:41;;;;;;;6.32;5.47;;;3.80;86.90;;;;;;5030930;28;20045;-77
2021/11/29 11:48:09;;;;;;;12.38;6.00;;;3.80;86.30;;;;;;5040556;28;20028;-77
2021/11/29 11:50:42;;;;;;;8.20;6.72;;;3.70;86.10;;;;;;5033784;28;20040;-77
2021/11/29 11:53:09;;;;;;;14.93;8.25;;;3.70;86.40;;;;;;5033956;28;20041;-77
2021/11/29 11:55:40;;;;;;;8.10;7.20;;;3.80;87.30;;;;;;5016792;28;20051;-76
2021/11/29 11:58:13;;;;;;;6.93;5.20;;;3.70;85.80;;;;;;5042602;28;20478;-76
2021/11/29 12:00:58;;;;;;;24.15;5.43;;;3.70;86.00;;;;;;5023243;28;20029;-77
2021/11/29 12:03:33;;;;;;;5.72;4.75;;;3.80;85.70;;;;;;5029027;28;20567;-77
2021/11/29 12:06:08;;;;;;;5.53;4.88;;;3.80;86.30;;;;;;5023493;28;20041;-76
2021/11/29 12:08:49;;;;;;;6.18;4.70;;;3.80;86.60;;;;;;5043177;28;20505;-77
2021/11/29 12:11:28;;;;;;;5.32;4.82;;;3.90;86.70;;;;;;5040942;28;20374;-76
2021/11/29 12:14:31;;;;;;;6.78;5.18;;;3.90;87.20;;;;;;5022450;28;20033;-77
2021/11/29 12:17:01;;;;;;;55.60;44.22;;;4.00;86.50;;;;;;5024404;28;20049;-77
2021/11/29 12:19:27;;;;;;;6.68;5.57;;;4.00;86.10;;;;;;5031228;28;20025;-77
2021/11/29 12:21:56;;;;;;;88.40;76.50;;;4.00;86.00;;;;;;5032009;28;20554;-77
2021/11/29 12:24:35;;;;;;;10.18;7.03;;;4.00;86.00;;;;;;5040113;28;20041;-76
2021/11/29 12:27:08;;;;;;;6.53;4.93;;;4.00;85.50;;;;;;5034952;28;20395;-76
2021/11/29 12:29:54;;;;;;;5.45;4.15;;;4.00;86.10;;;;;;5042899;28;20398;-77
2021/11/29 12:32:23;;;;;;;8.93;5.10;;;4.00;85.40;;;;;;5029966;28;20128;-76
2021/11/29 12:34:59;;;;;;;5.90;5.13;;;4.10;86.10;;;;;;5033580;28;20474;-77
2021/11/29 12:37:36;;;;;;;7.95;5.28;;;4.00;85.20;;;;;;5036042;28;20041;-76
2021/11/29 12:40:05;;;;;;;6.80;5.15;;;4.00;85.20;;;;;;5036045;28;20191;-76
2021/11/29 12:42:34;;;;;;;5.25;3.80;;;4.00;84.10;;;;;;5035319;28;20037;-76
2021/11/29 12:45:14;;;;;;;9.30;4.85;;;4.00;84.00;;;;;;5035889;28;20034;-77
2021/11/29 12:47:40;;;;;;;7.15;4.63;;;4.00;84.70;;;;;;5035002;28;20044;-77